Terminal Aerodrome Forecast
Issued by NWS Shreveport, LA

Current Version | Previous Version | Text Only | Print | Product List | Glossary On
Versions: 1 2 3 4 5 6 7 8 9 10 11 12 13 14 15
477
FTUS44 KSHV 271746
TAFLFK
TAF
KLFK 271746Z 2718/2818 19012G18KT P6SM SCT025 BKN040
      TEMPO 2718/2719 BKN020
     FM280000 16010KT P6SM SKC
     FM280700 17006KT P6SM BKN020
      TEMPO 2809/2813 OVC010
     FM281600 20008KT P6SM SCT030 BKN250=

USA.gov is the U.S. government's official web portal to all federal, state and local government web resources and services.